Time;durP1;ratioP1;P1;durP2;ratioP2;P2;SDS_P1;SDS_P2;PMS_P1;PMS_P2;Temp;Humidity;BMP_temperature;BMP_pressure;BME280_temperature;BME280_humidity;BME280_pressure;Samples;Min_cycle;Max_cycle;Signal;HPM_P1;HPM_P2
2021/07/16 00:00:22;;;;;;;;;;;21.10;88.50;;;;;;5034044;28;19952;-60
2021/07/16 00:02:48;;;;;;;;;;;21.00;88.40;;;;;;5033219;28;19917;-60
2021/07/16 00:05:14;;;;;;;;;;;20.90;88.40;;;;;;5033824;28;20270;-60
2021/07/16 00:07:40;;;;;;;;;;;20.90;88.40;;;;;;5033050;28;19944;-60
2021/07/16 00:10:07;;;;;;;;;;;20.80;88.70;;;;;;5033668;28;19944;-60
2021/07/16 00:12:33;;;;;;;;;;;20.90;89.00;;;;;;5033693;28;19921;-60
2021/07/16 00:14:59;;;;;;;;;;;20.90;88.90;;;;;;5015301;28;20309;-60
2021/07/16 00:17:25;;;;;;;;;;;20.90;89.00;;;;;;5015734;28;19917;-60
2021/07/16 00:19:50;;;;;;;;;;;20.90;89.00;;;;;;5033569;28;19918;-60
2021/07/16 00:22:16;;;;;;;;;;;20.90;88.80;;;;;;5032932;28;19953;-60
2021/07/16 00:24:41;;;;;;;;;;;20.90;88.70;;;;;;5033412;28;19952;-59
2021/07/16 00:27:07;;;;;;;;;;;20.90;88.70;;;;;;5033257;28;19955;-60
2021/07/16 00:29:33;;;;;;;;;;;20.90;88.50;;;;;;5015528;28;19955;-60
2021/07/16 00:31:58;;;;;;;;;;;20.80;88.50;;;;;;5015561;28;20341;-59
2021/07/16 00:34:24;;;;;;;;;;;20.80;88.30;;;;;;5033109;28;19974;-60
2021/07/16 00:36:50;;;;;;;;;;;20.80;88.40;;;;;;5032569;28;20064;-60
2021/07/16 00:39:15;;;;;;;;;;;20.70;88.20;;;;;;5033264;28;19928;-60
2021/07/16 00:41:41;;;;;;;;;;;20.70;88.30;;;;;;5032849;28;19918;-61
2021/07/16 00:44:06;;;;;;;;;;;20.70;88.20;;;;;;5032931;28;19921;-60
2021/07/16 00:46:32;;;;;;;;;;;20.60;88.20;;;;;;5033040;28;19923;-60
2021/07/16 00:48:58;;;;;;;;;;;20.60;88.10;;;;;;5032420;28;20396;-60
2021/07/16 00:51:23;;;;;;;;;;;20.50;88.10;;;;;;5032971;28;19921;-60
2021/07/16 00:53:49;;;;;;;;;;;20.50;88.20;;;;;;5032724;28;20018;-60
2021/07/16 00:56:15;;;;;;;;;;;20.40;88.20;;;;;;5032294;28;19932;-60
2021/07/16 00:58:40;;;;;;;;;;;20.30;88.20;;;;;;5032597;28;20012;-60
2021/07/16 01:01:07;;;;;;;;;;;20.30;88.50;;;;;;5032697;28;20346;-60
2021/07/16 01:03:33;;;;;;;;;;;20.20;88.40;;;;;;5032005;28;19917;-60
2021/07/16 01:06:00;;;;;;;;;;;20.20;88.50;;;;;;5032684;28;20333;-60
2021/07/16 01:08:25;;;;;;;;;;;20.10;88.60;;;;;;5031947;28;20000;-60
2021/07/16 01:10:51;;;;;;;;;;;20.10;88.70;;;;;;5032573;28;19948;-59
2021/07/16 01:13:16;;;;;;;;;;;20.10;88.90;;;;;;5014929;28;19928;-60
2021/07/16 01:15:42;;;;;;;;;;;20.00;88.80;;;;;;5031960;28;20441;-60
2021/07/16 01:18:07;;;;;;;;;;;20.00;88.80;;;;;;5032183;28;19913;-59
2021/07/16 01:20:33;;;;;;;;;;;20.00;88.70;;;;;;5032487;28;19917;-59
2021/07/16 01:23:00;;;;;;;;;;;19.90;88.80;;;;;;5031893;28;20306;-59
2021/07/16 01:25:27;;;;;;;;;;;19.80;88.70;;;;;;5032219;28;19916;-60
2021/07/16 01:27:53;;;;;;;;;;;19.80;88.90;;;;;;5031640;28;19994;-59
2021/07/16 01:30:21;;;;;;;;;;;19.70;89.00;;;;;;5032171;28;19917;-60
2021/07/16 01:32:47;;;;;;;;;;;19.70;89.10;;;;;;5032074;28;19921;-60
2021/07/16 01:35:13;;;;;;;;;;;19.70;89.20;;;;;;5031567;28;20388;-60
2021/07/16 01:37:39;;;;;;;;;;;19.70;89.30;;;;;;5031865;28;19924;-59
2021/07/16 01:40:15;;;;;;;;;;;19.60;89.20;;;;;;5031630;28;20452;-60
2021/07/16 01:42:42;;;;;;;;;;;19.50;89.30;;;;;;5032149;28;19917;-59
2021/07/16 01:45:15;;;;;;;;;;;19.50;89.40;;;;;;5031406;28;20460;-60
2021/07/16 01:47:46;;;;;;;;;;;19.50;89.50;;;;;;5031765;28;20447;-59
2021/07/16 01:50:11;;;;;;;;;;;19.50;89.60;;;;;;5013743;28;19917;-60
2021/07/16 01:52:37;;;;;;;;;;;19.50;89.80;;;;;;5032028;28;19917;-60
2021/07/16 01:55:04;;;;;;;;;;;19.50;89.70;;;;;;5030606;28;20408;-59
2021/07/16 01:57:29;;;;;;;;;;;19.50;89.70;;;;;;5031008;28;19921;-59
2021/07/16 01:59:55;;;;;;;;;;;19.50;89.70;;;;;;5014353;28;19917;-59
2021/07/16 02:02:21;;;;;;;;;;;19.40;89.80;;;;;;5031819;28;19913;-59
2021/07/16 02:04:46;;;;;;;;;;;19.50;89.90;;;;;;5031128;28;20062;-60
2021/07/16 02:07:12;;;;;;;;;;;19.40;90.00;;;;;;5031334;28;20012;-59
2021/07/16 02:09:37;;;;;;;;;;;19.40;90.00;;;;;;5013634;28;19917;-60
2021/07/16 02:12:04;;;;;;;;;;;19.50;90.10;;;;;;5031526;28;20010;-60
2021/07/16 02:14:29;;;;;;;;;;;19.50;90.00;;;;;;5031300;28;19928;-59
2021/07/16 02:16:55;;;;;;;;;;;19.50;90.20;;;;;;5030261;28;20289;-60
2021/07/16 02:19:21;;;;;;;;;;;19.60;90.00;;;;;;5031318;28;19956;-59
2021/07/16 02:21:47;;;;;;;;;;;19.50;90.00;;;;;;5013954;28;19917;-59
2021/07/16 02:24:13;;;;;;;;;;;19.50;89.70;;;;;;5030547;28;20409;-59
2021/07/16 02:26:38;;;;;;;;;;;19.50;89.60;;;;;;5013183;28;19917;-59
2021/07/16 02:29:05;;;;;;;;;;;19.50;89.60;;;;;;5031314;28;20004;-59
2021/07/16 02:31:31;;;;;;;;;;;19.50;89.90;;;;;;5030822;28;19917;-60
2021/07/16 02:33:56;;;;;;;;;;;19.40;90.00;;;;;;5031119;28;19925;-59
2021/07/16 02:36:23;;;;;;;;;;;19.50;90.00;;;;;;5030933;28;20391;-60
2021/07/16 02:38:49;;;;;;;;;;;19.50;89.90;;;;;;5030886;28;19951;-59
2021/07/16 02:41:15;;;;;;;;;;;19.40;89.80;;;;;;5031248;28;19939;-59
2021/07/16 02:43:41;;;;;;;;;;;19.40;89.60;;;;;;5030464;28;19917;-60
2021/07/16 02:46:06;;;;;;;;;;;19.40;89.50;;;;;;5031207;28;19921;-59
2021/07/16 02:48:33;;;;;;;;;;;19.40;89.40;;;;;;5030873;28;19924;-59
2021/07/16 02:50:59;;;;;;;;;;;19.30;89.50;;;;;;5031117;28;20400;-60
2021/07/16 02:53:25;;;;;;;;;;;19.30;89.50;;;;;;5031104;28;19921;-59
2021/07/16 02:55:52;;;;;;;;;;;19.20;89.30;;;;;;5030592;28;19917;-60
2021/07/16 02:58:17;;;;;;;;;;;19.20;89.50;;;;;;5030964;28;19987;-59
2021/07/16 03:00:43;;;;;;;;;;;19.10;89.60;;;;;;5030954;28;19917;-59
2021/07/16 03:03:09;;;;;;;;;;;19.10;89.60;;;;;;5030537;28;19923;-60
2021/07/16 03:05:35;;;;;;;;;;;19.10;89.80;;;;;;5031058;28;19924;-59
2021/07/16 03:08:01;;;;;;;;;;;19.10;89.80;;;;;;5030906;28;19913;-59
2021/07/16 03:10:31;;;;;;;;;;;19.10;89.90;;;;;;5030542;28;20297;-59
2021/07/16 03:12:58;;;;;;;;;;;19.20;89.90;;;;;;5030959;28;19917;-59
2021/07/16 03:15:24;;;;;;;;;;;19.10;89.60;;;;;;5030381;28;19918;-59
2021/07/16 03:17:50;;;;;;;;;;;19.10;89.70;;;;;;5030740;28;19917;-60
2021/07/16 03:20:17;;;;;;;;;;;19.20;89.70;;;;;;5030837;28;20373;-59
2021/07/16 03:22:43;;;;;;;;;;;19.20;89.70;;;;;;5030531;28;20004;-60
2021/07/16 03:25:10;;;;;;;;;;;19.20;89.60;;;;;;5030643;28;20008;-60
2021/07/16 03:27:36;;;;;;;;;;;19.20;89.50;;;;;;5031873;28;19921;-60
2021/07/16 03:30:02;;;;;;;;;;;19.20;89.40;;;;;;5034552;28;20012;-60
2021/07/16 03:32:27;;;;;;;;;;;19.20;89.50;;;;;;5034504;28;20004;-59
2021/07/16 03:34:53;;;;;;;;;;;19.20;89.50;;;;;;5033677;28;19928;-60
2021/07/16 03:37:18;;;;;;;;;;;19.20;89.50;;;;;;5034163;28;19996;-59
2021/07/16 03:39:45;;;;;;;;;;;19.20;89.40;;;;;;5016654;28;19917;-59
2021/07/16 03:42:10;;;;;;;;;;;19.20;89.60;;;;;;5033750;28;19967;-59
2021/07/16 03:44:36;;;;;;;;;;;19.20;89.40;;;;;;5034044;28;20012;-58
2021/07/16 03:47:01;;;;;;;;;;;19.20;89.50;;;;;;5033473;28;19917;-58
2021/07/16 03:49:28;;;;;;;;;;;19.20;89.50;;;;;;5034091;28;19917;-58
2021/07/16 03:51:54;;;;;;;;;;;19.20;89.10;;;;;;5034148;28;20439;-58
2021/07/16 03:54:20;;;;;;;;;;;19.20;89.20;;;;;;5015789;28;20297;-58
2021/07/16 03:56:45;;;;;;;;;;;19.20;89.40;;;;;;5033705;28;19917;-58
2021/07/16 03:59:11;;;;;;;;;;;19.20;89.30;;;;;;5033884;28;19917;-58
2021/07/16 04:01:36;;;;;;;;;;;19.20;89.20;;;;;;5015629;28;19996;-58
2021/07/16 04:04:02;;;;;;;;;;;19.20;89.10;;;;;;5033749;28;19917;-58
2021/07/16 04:06:28;;;;;;;;;;;19.30;89.80;;;;;;5033316;28;19917;-59
2021/07/16 04:09:09;;;;;;;;;;;19.30;89.20;;;;;;5033592;28;19971;-58
2021/07/16 04:11:35;;;;;;;;;;;19.30;89.60;;;;;;5033250;28;20279;-62
2021/07/16 04:14:01;;;;;;;;;;;19.30;88.90;;;;;;5033447;28;19923;-63
2021/07/16 04:16:27;;;;;;;;;;;19.40;88.90;;;;;;5033613;28;19924;-62
2021/07/16 04:18:52;;;;;;;;;;;19.40;88.80;;;;;;5032800;28;19917;-62
2021/07/16 04:21:18;;;;;;;;;;;19.40;89.00;;;;;;5033328;28;20335;-62
2021/07/16 04:23:43;;;;;;;;;;;19.40;88.70;;;;;;5031871;28;20437;-62
2021/07/16 04:26:09;;;;;;;;;;;19.50;88.60;;;;;;5033389;28;19936;-63
2021/07/16 04:28:34;;;;;;;;;;;19.40;88.40;;;;;;5032999;28;20020;-66
2021/07/16 04:31:00;;;;;;;;;;;19.40;88.20;;;;;;5032838;28;19917;-62
2021/07/16 04:33:25;;;;;;;;;;;19.40;88.60;;;;;;5033153;28;19959;-62
2021/07/16 04:35:51;;;;;;;;;;;19.50;88.90;;;;;;5033131;28;19913;-62
2021/07/16 04:38:18;;;;;;;;;;;19.50;88.60;;;;;;5032513;28;19917;-62
2021/07/16 04:40:43;;;;;;;;;;;19.50;88.50;;;;;;5033011;28;19995;-62
2021/07/16 04:43:10;;;;;;;;;;;19.60;88.20;;;;;;5028704;28;20009;-63
2021/07/16 04:45:37;;;;;;;;;;;19.60;88.10;;;;;;4996877;28;19928;-62
2021/07/16 04:48:04;;;;;;;;;;;19.60;88.10;;;;;;5031767;28;19932;-62
2021/07/16 04:50:29;;;;;;;;;;;19.60;88.10;;;;;;5032410;28;19963;-62
2021/07/16 04:52:55;;;;;;;;;;;19.60;87.80;;;;;;5032902;28;19921;-62
2021/07/16 04:55:21;;;;;;;;;;;19.60;87.90;;;;;;5032922;28;19952;-63
2021/07/16 04:57:47;;;;;;;;;;;19.70;87.90;;;;;;5031329;28;20365;-62
2021/07/16 05:00:13;;;;;;;;;;;19.70;87.70;;;;;;5032300;28;20020;-63
2021/07/16 05:02:39;;;;;;;;;;;19.70;87.50;;;;;;5032141;28;19979;-62
2021/07/16 05:05:05;;;;;;;;;;;19.80;87.90;;;;;;5032352;28;19925;-63
2021/07/16 05:07:30;;;;;;;;;;;19.90;87.90;;;;;;5014085;28;20361;-62
2021/07/16 05:09:56;;;;;;;;;;;20.10;87.60;;;;;;5031905;28;19917;-62
2021/07/16 05:12:21;;;;;;;;;;;20.20;87.40;;;;;;5032383;28;19918;-63
2021/07/16 05:14:47;;;;;;;;;;;20.40;87.10;;;;;;5032561;28;19944;-63
2021/07/16 05:17:13;;;;;;;;;;;20.50;87.20;;;;;;5031056;28;19917;-63
2021/07/16 05:19:38;;;;;;;;;;;20.70;86.90;;;;;;5032457;28;19917;-64
2021/07/16 05:22:04;;;;;;;;;;;20.80;86.30;;;;;;5011570;28;19925;-64
2021/07/16 05:24:30;;;;;;;;;;;20.80;85.70;;;;;;5031203;28;19995;-64
2021/07/16 05:26:56;;;;;;;;;;;20.90;85.70;;;;;;5013842;28;19917;-62
2021/07/16 05:29:22;;;;;;;;;;;21.10;85.80;;;;;;5013959;28;20039;-60
2021/07/16 05:31:47;;;;;;;;;;;21.20;84.80;;;;;;5032213;28;20374;-64
2021/07/16 05:34:15;;;;;;;;;;;21.10;84.10;;;;;;5014394;28;20362;-64
2021/07/16 05:36:40;;;;;;;;;;;21.10;84.30;;;;;;5031293;28;19917;-63
2021/07/16 05:39:06;;;;;;;;;;;21.30;84.40;;;;;;5031913;28;20016;-64
2021/07/16 05:41:32;;;;;;;;;;;21.30;83.50;;;;;;5032018;28;19960;-64
2021/07/16 05:43:57;;;;;;;;;;;21.30;83.10;;;;;;5031238;28;19924;-64
2021/07/16 05:46:23;;;;;;;;;;;21.40;83.40;;;;;;5032185;28;19917;-63
2021/07/16 05:48:49;;;;;;;;;;;21.40;82.30;;;;;;5032024;28;20390;-59
2021/07/16 05:51:15;;;;;;;;;;;21.30;82.20;;;;;;5046063;28;19917;-59
2021/07/16 05:53:41;;;;;;;;;;;21.20;82.20;;;;;;5031672;28;20025;-58
2021/07/16 05:56:14;;;;;;;;;;;21.20;82.40;;;;;;5006711;28;20428;-59
2021/07/16 05:58:39;;;;;;;;;;;21.40;83.00;;;;;;5029849;28;20369;-59
2021/07/16 06:01:05;;;;;;;;;;;21.60;83.00;;;;;;5031171;28;19924;-59
2021/07/16 06:03:30;;;;;;;;;;;22.00;83.90;;;;;;5030045;28;19921;-59
2021/07/16 06:05:56;;;;;;;;;;;22.50;83.30;;;;;;5028551;28;20449;-59
2021/07/16 06:08:21;;;;;;;;;;;22.80;82.40;;;;;;5030257;28;20381;-59
2021/07/16 06:10:47;;;;;;;;;;;23.10;81.90;;;;;;5030445;28;19924;-59
2021/07/16 06:13:12;;;;;;;;;;;23.30;80.40;;;;;;5021464;28;19921;-59
2021/07/16 06:15:38;;;;;;;;;;;23.60;78.70;;;;;;5030157;28;19921;-59
2021/07/16 06:18:04;;;;;;;;;;;23.60;78.10;;;;;;5030162;28;19928;-59
2021/07/16 06:20:29;;;;;;;;;;;23.60;77.10;;;;;;5030732;28;20278;-59
2021/07/16 06:22:55;;;;;;;;;;;23.80;78.50;;;;;;5023237;28;20008;-59
2021/07/16 06:25:21;;;;;;;;;;;24.20;78.00;;;;;;4993479;28;20396;-59
2021/07/16 06:27:46;;;;;;;;;;;24.70;77.60;;;;;;5017783;28;19921;-59
2021/07/16 06:30:13;;;;;;;;;;;25.40;77.80;;;;;;5005808;28;19925;-59
2021/07/16 06:32:38;;;;;;;;;;;25.70;74.30;;;;;;5004756;28;19917;-59
2021/07/16 06:35:05;;;;;;;;;;;25.40;71.30;;;;;;5030577;28;19925;-59
2021/07/16 06:37:30;;;;;;;;;;;24.90;70.40;;;;;;5030088;28;20316;-59
2021/07/16 06:39:57;;;;;;;;;;;24.50;70.70;;;;;;5029872;28;20000;-59
2021/07/16 06:42:23;;;;;;;;;;;24.20;71.10;;;;;;5012410;28;20052;-59
2021/07/16 06:44:49;;;;;;;;;;;24.50;73.90;;;;;;5020281;28;20012;-59
2021/07/16 06:47:15;;;;;;;;;;;25.80;77.60;;;;;;5025663;28;20322;-59
2021/07/16 06:49:40;;;;;;;;;;;27.70;77.40;;;;;;5030030;28;19917;-59
2021/07/16 06:52:06;;;;;;;;;;;29.80;75.70;;;;;;5030527;28;19917;-59
2021/07/16 06:54:32;;;;;;;;;;;31.60;71.90;;;;;;5019658;28;19952;-59
2021/07/16 06:56:58;;;;;;;;;;;33.10;67.50;;;;;;5023437;28;19917;-59
2021/07/16 06:59:23;;;;;;;;;;;33.60;61.70;;;;;;5029420;28;20401;-59
2021/07/16 07:01:49;;;;;;;;;;;33.30;56.20;;;;;;5030101;28;19971;-59
2021/07/16 07:04:15;;;;;;;;;;;31.70;53.40;;;;;;5033722;28;20282;-59
2021/07/16 07:06:40;;;;;;;;;;;30.00;54.10;;;;;;5011940;28;19940;-59
2021/07/16 07:09:06;;;;;;;;;;;29.00;56.80;;;;;;5033315;28;19970;-59
2021/07/16 07:11:31;;;;;;;;;;;29.00;57.70;;;;;;5016492;28;19917;-59
2021/07/16 07:13:57;;;;;;;;;;;28.90;57.40;;;;;;5015829;28;19924;-59
2021/07/16 07:16:23;;;;;;;;;;;28.70;57.10;;;;;;5025900;28;19913;-59
2021/07/16 07:18:48;;;;;;;;;;;28.40;56.40;;;;;;5026105;28;19921;-60
2021/07/16 07:21:14;;;;;;;;;;;28.00;56.90;;;;;;5034061;28;19967;-59
2021/07/16 07:23:40;;;;;;;;;;;27.70;57.30;;;;;;5033879;28;19925;-59
2021/07/16 07:26:06;;;;;;;;;;;27.40;57.50;;;;;;5002537;28;19996;-59
2021/07/16 07:28:32;;;;;;;;;;;27.30;57.60;;;;;;5016086;28;19917;-59
2021/07/16 07:30:57;;;;;;;;;;;27.20;58.50;;;;;;5034160;28;19917;-59
2021/07/16 07:33:23;;;;;;;;;;;27.10;58.60;;;;;;5016360;28;19917;-59
2021/07/16 07:35:48;;;;;;;;;;;27.10;58.70;;;;;;5032410;28;19967;-59
2021/07/16 07:38:14;;;;;;;;;;;27.10;59.00;;;;;;5032644;28;19922;-59
2021/07/16 07:40:40;;;;;;;;;;;27.20;59.10;;;;;;5033712;28;19917;-59
2021/07/16 07:43:06;;;;;;;;;;;27.30;59.60;;;;;;5034422;28;19924;-59
2021/07/16 07:45:32;;;;;;;;;;;27.60;60.00;;;;;;5015500;28;19921;-60
2021/07/16 07:47:58;;;;;;;;;;;28.10;60.00;;;;;;5015839;28;19940;-59
2021/07/16 07:50:24;;;;;;;;;;;28.40;58.70;;;;;;5034116;28;19917;-59
2021/07/16 07:52:50;;;;;;;;;;;28.30;58.30;;;;;;5033596;28;19917;-59
2021/07/16 07:55:16;;;;;;;;;;;28.50;59.00;;;;;;5032312;28;20366;-59
2021/07/16 07:57:42;;;;;;;;;;;28.80;58.50;;;;;;5028924;28;20027;-60
2021/07/16 08:00:09;;;;;;;;;;;29.70;59.70;;;;;;5032433;28;20392;-60
2021/07/16 08:02:37;;;;;;;;;;;31.10;59.80;;;;;;5032864;28;20400;-60
2021/07/16 08:05:03;;;;;;;;;;;32.60;58.90;;;;;;5032646;28;19960;-60
2021/07/16 08:07:29;;;;;;;;;;;34.20;55.90;;;;;;5032712;28;19917;-59
2021/07/16 08:09:54;;;;;;;;;;;35.30;53.20;;;;;;5033762;28;19928;-60
2021/07/16 08:12:20;;;;;;;;;;;35.60;49.50;;;;;;5015792;28;19917;-60
2021/07/16 08:14:46;;;;;;;;;;;35.50;48.60;;;;;;5032166;28;19932;-59
2021/07/16 08:17:11;;;;;;;;;;;35.00;47.00;;;;;;5033015;28;20297;-59
2021/07/16 08:19:37;;;;;;;;;;;34.40;46.40;;;;;;5033146;28;19959;-59
2021/07/16 08:22:02;;;;;;;;;;;33.50;45.80;;;;;;5033552;28;19916;-59
2021/07/16 08:24:28;;;;;;;;;;;33.80;49.60;;;;;;5015200;28;19956;-60
2021/07/16 08:26:54;;;;;;;;;;;35.80;50.30;;;;;;5032831;28;19921;-59
2021/07/16 08:29:19;;;;;;;;;;;37.80;47.20;;;;;;5015705;28;19982;-60
2021/07/16 08:31:45;;;;;;;;;;;39.00;45.20;;;;;;5033058;28;19917;-60
2021/07/16 08:34:11;;;;;;;;;;;39.50;42.80;;;;;;5033175;28;20423;-60
2021/07/16 08:36:36;;;;;;;;;;;39.30;41.60;;;;;;5032376;28;19917;-59
2021/07/16 08:39:05;;;;;;;;;;;39.80;40.40;;;;;;5032546;28;20385;-58
2021/07/16 08:41:31;;;;;;;;;;;40.20;39.60;;;;;;5032959;28;19917;-58
2021/07/16 08:43:56;;;;;;;;;;;40.70;39.30;;;;;;5012343;28;19917;-58
2021/07/16 08:46:22;;;;;;;;;;;41.50;38.90;;;;;;5013567;28;20374;-57
2021/07/16 08:48:48;;;;;;;;;;;42.60;38.30;;;;;;5012572;28;19921;-57
2021/07/16 08:51:22;;;;;;;;;;;43.40;36.40;;;;;;4995689;28;19969;-58
2021/07/16 08:53:54;;;;;;;;;;;43.80;34.80;;;;;;5014818;28;19921;-58
2021/07/16 08:56:20;;;;;;;;;;;44.20;33.90;;;;;;5030756;28;19921;-59
2021/07/16 08:58:46;;;;;;;;;;;44.40;33.40;;;;;;5031128;28;19917;-58
2021/07/16 09:01:12;;;;;;;;;;;44.90;33.30;;;;;;5032164;28;20357;-58
2021/07/16 09:03:56;;;;;;;;;;;45.30;31.70;;;;;;5032273;28;19917;-58
2021/07/16 09:06:40;;;;;;;;;;;45.40;31.60;;;;;;5032223;28;19996;-58
2021/07/16 09:09:06;;;;;;;;;;;46.00;31.00;;;;;;5032142;28;19928;-59
2021/07/16 09:11:37;;;;;;;;;;;46.30;30.70;;;;;;5032701;28;19917;-58
2021/07/16 09:14:02;;;;;;;;;;;46.60;30.10;;;;;;5031852;28;19921;-59
2021/07/16 09:16:30;;;;;;;;;;;46.20;29.60;;;;;;5031864;28;19917;-58
2021/07/16 09:18:59;;;;;;;;;;;46.20;30.00;;;;;;5031453;28;20297;-59
2021/07/16 09:21:24;;;;;;;;;;;46.70;30.00;;;;;;5032386;28;20007;-58
2021/07/16 09:23:50;;;;;;;;;;;47.10;29.10;;;;;;5032360;28;19996;-58
2021/07/16 09:26:17;;;;;;;;;;;46.50;28.60;;;;;;5031347;28;19944;-59
2021/07/16 09:28:44;;;;;;;;;;;46.30;29.30;;;;;;5031534;28;20012;-58
2021/07/16 09:31:11;;;;;;;;;;;46.80;29.40;;;;;;5031166;28;19913;-58
2021/07/16 09:33:43;;;;;;;;;;;47.50;29.20;;;;;;5031295;28;19947;-59
2021/07/16 09:36:09;;;;;;;;;;;48.00;28.60;;;;;;5031388;28;19947;-58
2021/07/16 09:38:35;;;;;;;;;;;48.70;28.70;;;;;;5030752;28;19921;-59
2021/07/16 09:41:05;;;;;;;;;;;48.80;27.90;;;;;;5031355;28;20335;-58
2021/07/16 09:43:30;;;;;;;;;;;47.60;27.30;;;;;;5030491;28;19959;-59
2021/07/16 09:46:03;;;;;;;;;;;45.30;27.40;;;;;;5013426;28;19960;-59
2021/07/16 09:48:29;;;;;;;;;;;44.30;29.40;;;;;;5030433;28;20389;-58
2021/07/16 09:51:12;;;;;;;;;;;45.20;30.10;;;;;;5030464;28;19924;-58
2021/07/16 09:53:40;;;;;;;;;;;46.70;29.50;;;;;;5013699;28;19967;-58
2021/07/16 09:56:13;;;;;;;;;;;47.40;28.60;;;;;;5031042;28;19917;-59
2021/07/16 09:58:39;;;;;;;;;;;47.20;27.90;;;;;;5030493;28;20318;-58
2021/07/16 10:01:04;;;;;;;;;;;47.10;28.50;;;;;;5030256;28;19921;-59
2021/07/16 10:03:31;;;;;;;;;;;47.80;28.10;;;;;;5031227;28;19967;-59
2021/07/16 10:05:57;;;;;;;;;;;48.10;27.90;;;;;;5031213;28;19917;-58
2021/07/16 10:08:23;;;;;;;;;;;48.50;27.80;;;;;;5030012;28;19921;-59
2021/07/16 10:10:49;;;;;;;;;;;49.30;27.80;;;;;;5030882;28;20403;-59
2021/07/16 10:13:15;;;;;;;;;;;49.90;27.20;;;;;;5029592;28;19921;-59
2021/07/16 10:15:42;;;;;;;;;;;50.40;26.40;;;;;;5030733;28;19917;-59
2021/07/16 10:18:08;;;;;;;;;;;50.10;26.30;;;;;;5029591;28;19925;-59
2021/07/16 10:20:35;;;;;;;;;;;49.60;26.40;;;;;;5030085;28;19921;-59
2021/07/16 10:23:01;;;;;;;;;;;49.40;26.80;;;;;;5013231;28;19929;-59
2021/07/16 10:25:27;;;;;;;;;;;49.60;27.00;;;;;;5030787;28;19917;-58
2021/07/16 10:27:52;;;;;;;;;;;49.90;26.80;;;;;;5026874;28;20412;-59
2021/07/16 10:30:18;;;;;;;;;;;50.30;26.60;;;;;;5028629;28;19917;-59
2021/07/16 10:32:51;;;;;;;;;;;50.50;26.50;;;;;;5010815;28;20007;-58
2021/07/16 10:35:23;;;;;;;;;;;50.90;26.50;;;;;;5029798;28;19925;-59
2021/07/16 10:37:50;;;;;;;;;;;51.00;25.80;;;;;;5028416;28;19924;-59
2021/07/16 10:40:31;;;;;;;;;;;50.40;25.70;;;;;;5029542;28;19939;-59
2021/07/16 10:42:57;;;;;;;;;;;49.90;26.30;;;;;;5029751;28;19917;-59
2021/07/16 10:45:31;;;;;;;;;;;49.90;26.40;;;;;;5030138;28;19921;-59
2021/07/16 10:48:17;;;;;;;;;;;50.30;26.60;;;;;;5028714;28;19924;-59
2021/07/16 10:50:44;;;;;;;;;;;50.80;26.20;;;;;;5011305;28;19917;-59
2021/07/16 10:53:14;;;;;;;;;;;51.20;26.40;;;;;;5012252;28;20349;-59
2021/07/16 10:55:40;;;;;;;;;;;51.80;26.10;;;;;;5011477;28;19917;-59
2021/07/16 10:58:19;;;;;;;;;;;52.10;25.80;;;;;;5029558;28;19924;-58
2021/07/16 11:00:44;;;;;;;;;;;51.40;25.30;;;;;;5029337;28;19921;-58
2021/07/16 11:03:10;;;;;;;;;;;49.30;25.60;;;;;;5030022;28;20445;-59
2021/07/16 11:05:36;;;;;;;;;;;48.80;26.60;;;;;;5029834;28;19928;-58
2021/07/16 11:08:02;;;;;;;;;;;49.40;26.90;;;;;;5028904;28;19925;-58
2021/07/16 11:10:47;;;;;;;;;;;48.70;25.90;;;;;;5029629;28;19995;-58
2021/07/16 11:13:32;;;;;;;;;;;45.60;26.20;;;;;;5018508;28;19925;-58
2021/07/16 11:15:58;;;;;;;;;;;43.30;28.70;;;;;;5029690;28;20388;-58
2021/07/16 11:18:29;;;;;;;;;;;44.10;29.90;;;;;;5011012;28;19936;-59
2021/07/16 11:20:56;;;;;;;;;;;45.30;29.30;;;;;;5029575;28;19925;-58
2021/07/16 11:23:41;;;;;;;;;;;46.40;28.70;;;;;;5029527;28;19924;-58
2021/07/16 11:26:14;;;;;;;;;;;47.40;28.30;;;;;;5013683;28;19924;-58
2021/07/16 11:28:39;;;;;;;;;;;48.30;28.00;;;;;;5028547;28;20488;-58
2021/07/16 11:31:05;;;;;;;;;;;48.70;27.50;;;;;;5029588;28;20023;-58
2021/07/16 11:33:30;;;;;;;;;;;48.30;27.00;;;;;;5029343;28;20067;-59
2021/07/16 11:35:59;;;;;;;;;;;47.00;27.20;;;;;;5029942;28;19971;-58
2021/07/16 11:38:25;;;;;;;;;;;45.40;27.40;;;;;;5029179;28;20389;-58
2021/07/16 11:40:51;;;;;;;;;;;43.40;28.40;;;;;;5028792;28;20492;-58
2021/07/16 11:43:16;;;;;;;;;;;41.90;29.50;;;;;;5029940;28;19967;-57
2021/07/16 11:45:43;;;;;;;;;;;40.90;30.40;;;;;;5029634;28;19921;-58
2021/07/16 11:48:21;;;;;;;;;;;40.20;30.50;;;;;;5028815;28;19921;-58
2021/07/16 11:50:47;;;;;;;;;;;39.10;31.80;;;;;;5032520;28;19921;-58
2021/07/16 11:53:16;;;;;;;;;;;38.40;33.20;;;;;;5033169;28;20372;-58
2021/07/16 11:55:44;;;;;;;;;;;37.80;33.60;;;;;;5015404;28;19917;-58
2021/07/16 11:58:09;;;;;;;;;;;37.00;35.00;;;;;;5031774;28;19918;-58
2021/07/16 12:00:37;;;;;;;;;;;36.60;36.00;;;;;;5032177;28;20434;-58
2021/07/16 12:03:03;;;;;;;;;;;36.30;36.60;;;;;;5032675;28;19963;-57
2021/07/16 12:05:29;;;;;;;;;;;36.10;36.70;;;;;;5032800;28;19976;-58
2021/07/16 12:07:56;;;;;;;;;;;35.80;37.20;;;;;;5032465;28;19921;-58
2021/07/16 12:10:21;;;;;;;;;;;35.50;38.00;;;;;;5031837;28;19924;-58
2021/07/16 12:12:47;;;;;;;;;;;35.40;38.80;;;;;;5031734;28;20377;-58
2021/07/16 12:15:22;;;;;;;;;;;35.50;39.20;;;;;;5032868;28;19925;-58
2021/07/16 12:18:01;;;;;;;;;;;36.00;39.20;;;;;;5031827;28;19925;-58
2021/07/16 12:20:31;;;;;;;;;;;36.40;38.40;;;;;;5031739;28;20136;-58
2021/07/16 12:22:57;;;;;;;;;;;36.00;38.60;;;;;;5032467;28;19955;-58
2021/07/16 12:25:23;;;;;;;;;;;35.70;39.20;;;;;;5032786;28;20377;-58
2021/07/16 12:28:07;;;;;;;;;;;35.50;39.80;;;;;;5031608;28;19921;-63
2021/07/16 12:30:33;;;;;;;;;;;35.40;40.10;;;;;;5012212;28;19918;-63
2021/07/16 12:33:07;;;;;;;;;;;35.10;40.10;;;;;;5013537;28;20314;-64
2021/07/16 12:35:36;;;;;;;;;;;34.90;40.30;;;;;;5012951;28;19921;-64
2021/07/16 12:38:03;;;;;;;;;;;34.50;40.60;;;;;;5013279;28;19960;-63
2021/07/16 12:40:29;;;;;;;;;;;34.20;41.40;;;;;;5012985;28;19925;-62
2021/07/16 12:43:01;;;;;;;;;;;33.90;41.80;;;;;;5027289;28;20270;-63
2021/07/16 12:45:40;;;;;;;;;;;33.80;42.20;;;;;;5022249;28;19928;-63
2021/07/16 12:48:14;;;;;;;;;;;33.50;42.70;;;;;;5012440;28;19921;-63
2021/07/16 12:50:40;;;;;;;;;;;33.50;43.30;;;;;;5012710;28;19918;-62
2021/07/16 12:53:05;;;;;;;;;;;33.30;43.30;;;;;;5013267;28;19913;-63
2021/07/16 12:55:32;;;;;;;;;;;33.20;43.90;;;;;;5012490;28;19921;-63
2021/07/16 12:58:02;;;;;;;;;;;33.10;44.40;;;;;;5011809;28;19924;-63
2021/07/16 13:00:28;;;;;;;;;;;33.20;44.60;;;;;;5012614;28;19924;-63
2021/07/16 13:03:11;;;;;;;;;;;33.40;44.40;;;;;;5012670;28;19969;-62
2021/07/16 13:05:37;;;;;;;;;;;33.40;44.10;;;;;;5012494;28;19917;-63
2021/07/16 13:08:12;;;;;;;;;;;33.00;44.30;;;;;;5012242;28;20325;-63
2021/07/16 13:10:45;;;;;;;;;;;32.70;44.40;;;;;;5012722;28;20373;-63
2021/07/16 13:13:15;;;;;;;;;;;32.40;45.10;;;;;;4995155;28;19963;-63
2021/07/16 13:15:40;;;;;;;;;;;32.30;45.70;;;;;;5023817;28;20016;-63
2021/07/16 13:18:06;;;;;;;;;;;32.10;46.30;;;;;;5031806;28;19996;-63
2021/07/16 13:20:32;;;;;;;;;;;31.90;46.90;;;;;;5032127;28;19917;-63
2021/07/16 13:22:58;;;;;;;;;;;31.90;47.70;;;;;;5014531;28;20430;-64
2021/07/16 13:25:23;;;;;;;;;;;31.90;47.50;;;;;;5031766;28;19987;-64
2021/07/16 13:27:50;;;;;;;;;;;31.70;47.30;;;;;;5030654;28;20369;-64
2021/07/16 13:30:15;;;;;;;;;;;31.40;48.30;;;;;;5031738;28;20373;-64
2021/07/16 13:32:42;;;;;;;;;;;31.30;48.30;;;;;;5032550;28;19924;-64
2021/07/16 13:35:07;;;;;;;;;;;31.10;49.40;;;;;;5013653;28;19953;-64
2021/07/16 13:37:34;;;;;;;;;;;31.10;49.50;;;;;;5031355;28;19952;-64
2021/07/16 13:40:00;;;;;;;;;;;31.10;50.10;;;;;;5031725;28;19960;-64
2021/07/16 13:42:26;;;;;;;;;;;31.10;50.00;;;;;;5031991;28;19971;-63
2021/07/16 13:44:52;;;;;;;;;;;31.00;50.00;;;;;;5013694;28;19925;-63
2021/07/16 13:47:17;;;;;;;;;;;30.90;50.00;;;;;;5030657;28;20270;-63
2021/07/16 13:49:43;;;;;;;;;;;30.60;50.60;;;;;;5014408;28;19921;-64
2021/07/16 13:52:09;;;;;;;;;;;30.50;50.90;;;;;;5047006;28;19925;-63
2021/07/16 13:54:35;;;;;;;;;;;30.30;51.70;;;;;;5027852;28;19929;-64
2021/07/16 13:57:00;;;;;;;;;;;30.10;52.10;;;;;;4993673;28;19925;-64
2021/07/16 13:59:26;;;;;;;;;;;30.10;52.20;;;;;;5011264;28;19918;-62
2021/07/16 14:01:52;;;;;;;;;;;30.00;52.60;;;;;;5011599;28;19925;-64
2021/07/16 14:04:18;;;;;;;;;;;30.10;53.60;;;;;;5011644;28;19917;-64
2021/07/16 14:06:43;;;;;;;;;;;30.40;53.20;;;;;;5030600;28;19917;-64
2021/07/16 14:09:09;;;;;;;;;;;30.40;53.00;;;;;;5031615;28;20011;-64
2021/07/16 14:11:34;;;;;;;;;;;30.30;52.60;;;;;;5030940;28;19921;-63
2021/07/16 14:14:00;;;;;;;;;;;30.10;52.90;;;;;;5031020;28;19929;-64